Current Conditions
Misty
Conditions



Pressure
1014.52 (mb) - 29.96 (inHG)
Visibility

6.2 (mimiles) - 10.0 (km)
   Temperature
75  °F
24°C
73  °F
Dewpoint
94  %
 Humidity
   Wind Speed
0  mph
0  kts
0  km/h
0  m/s
   Wind Direction
Calm
Due North
   Airport Data
KAMG
Location Bacon County Airport 16 mi (25.74 km)
Metar :KAMG 031453Z AUTO 00000KT 6SM BR OVC010 24/23 A2996 RMK AO2 CIG 008V013 SLP142 T02390228 53003
Tue 3rd August 10:53 am
   Raw Metar Info
Raw METAR is the most common format in the world for the transmission of observational weather data. It is highly standardized through the International Civil Aviation Organization (ICAO), which allows it to be understood throughout most of the world.
   API Info
Data Provided by
https://www.checkwx.com/weather/KAMG
   © Info
CSS/SVG/PHP scripts were developed by weather34.com for use in the weather34 template © 2015-2021

Guide Info provided by Metar-Wikipedia